createdAt,value
2018-04-07T00:02:49.692Z,49.50
2018-04-07T00:07:44.835Z,49.70
2018-04-07T00:12:39.296Z,49.60
2018-04-07T00:17:34.417Z,49.80
2018-04-07T00:22:28.548Z,49.80
2018-04-07T00:27:22.915Z,49.90
2018-04-07T00:32:17.287Z,50.10
2018-04-07T00:37:11.689Z,50.30
2018-04-07T00:42:06.081Z,50.60
2018-04-07T00:47:00.455Z,50.90
2018-04-07T00:51:55.584Z,51.00
2018-04-07T00:56:49.958Z,51.00
2018-04-07T01:01:44.315Z,51.20
2018-04-07T01:06:38.689Z,51.20
2018-04-07T01:11:33.261Z,51.30
2018-04-07T01:16:27.638Z,51.70
2018-04-07T01:21:22.023Z,52.10
2018-04-07T01:26:16.379Z,52.00
2018-04-07T01:31:10.756Z,51.90
2018-04-07T01:36:05.130Z,52.50
2018-04-07T01:40:59.492Z,52.30
2018-04-07T01:45:54.645Z,52.60
2018-04-07T01:50:49.027Z,52.50
2018-04-07T01:55:44.268Z,54.40
2018-04-07T02:00:38.654Z,54.40
2018-04-07T02:05:33.772Z,54.40
2018-04-07T02:10:28.902Z,54.50
2018-04-07T02:15:23.272Z,54.50
2018-04-07T02:20:17.631Z,54.50
2018-04-07T02:25:12.136Z,54.70
2018-04-07T02:30:06.492Z,55.00
2018-04-07T02:35:01.655Z,55.40
2018-04-07T02:39:56.039Z,55.40
2018-04-07T02:44:53.485Z,55.30
2018-04-07T02:49:47.864Z,55.20
2018-04-07T02:54:42.244Z,55.30
2018-04-07T02:59:36.612Z,55.30
2018-04-07T03:04:31.737Z,55.30
2018-04-07T03:09:26.128Z,55.20
2018-04-07T03:14:21.257Z,55.30
2018-04-07T03:19:15.627Z,55.30
2018-04-07T03:24:10.004Z,55.30
2018-04-07T03:29:04.356Z,55.70
2018-04-07T03:33:59.540Z,56.00
2018-04-07T03:38:53.900Z,56.00
2018-04-07T03:43:48.259Z,56.40
2018-04-07T03:48:42.412Z,56.40
2018-04-07T03:53:36.780Z,56.60
2018-04-07T03:58:31.435Z,57.00
2018-04-07T04:03:25.959Z,57.00
2018-04-07T04:08:20.339Z,57.30
2018-04-07T04:13:14.711Z,57.40
2018-04-07T04:18:09.082Z,57.70
2018-04-07T04:23:04.412Z,58.30
2018-04-07T04:27:58.775Z,58.20
2018-04-07T04:32:53.231Z,58.50
2018-04-07T04:37:48.364Z,58.30
2018-04-07T04:42:43.493Z,58.50
2018-04-07T04:47:37.929Z,58.40
2018-04-07T04:52:32.295Z,58.70
2018-04-07T04:57:26.751Z,58.70
2018-04-07T05:02:21.116Z,59.00
2018-04-07T05:07:15.481Z,59.20
2018-04-07T05:12:10.640Z,58.90
2018-04-07T05:17:05.423Z,58.90
2018-04-07T05:22:00.313Z,58.80
2018-04-07T05:26:54.761Z,58.70
2018-04-07T05:31:49.293Z,58.60
2018-04-07T05:36:44.246Z,58.20
2018-04-07T05:41:39.120Z,58.00
2018-04-07T05:46:33.466Z,57.70
2018-04-07T05:51:27.837Z,57.40
2018-04-07T05:56:22.985Z,56.60
2018-04-07T06:01:18.128Z,56.30
2018-04-07T06:06:13.254Z,56.40
2018-04-07T06:11:08.398Z,55.60
2018-04-07T06:16:02.778Z,55.50
2018-04-07T06:20:56.972Z,55.30
2018-04-07T06:25:51.324Z,50.60
2018-04-07T06:30:45.693Z,44.00
2018-04-07T06:35:40.056Z,38.70
2018-04-07T06:40:34.532Z,35.60
2018-04-07T06:45:29.666Z,33.50
2018-04-07T06:50:24.026Z,33.60
2018-04-07T06:55:18.404Z,31.30
2018-04-07T07:00:13.575Z,29.40
2018-04-07T07:05:07.692Z,29.30
2018-04-07T07:10:02.070Z,29.20
2018-04-07T07:14:56.462Z,28.30
2018-04-07T07:19:50.804Z,28.10
2018-04-07T07:24:45.098Z,27.40
2018-04-07T07:29:39.478Z,26.70
2018-04-07T07:34:35.786Z,25.70
2018-04-07T07:39:30.679Z,23.70
2018-04-07T07:44:26.416Z,23.60
2018-04-07T07:49:21.563Z,22.20
2018-04-07T07:54:15.991Z,22.10
2018-04-07T07:59:10.350Z,22.30
2018-04-07T08:04:05.631Z,22.50
2018-04-07T08:09:00.149Z,22.50
2018-04-07T08:13:54.500Z,21.70
2018-04-07T08:18:48.866Z,21.50
2018-04-07T08:23:43.216Z,21.50
2018-04-07T08:28:37.578Z,20.40
2018-04-07T08:33:32.710Z,18.90
2018-04-07T08:38:27.672Z,17.90
2018-04-07T08:43:22.175Z,17.80
2018-04-07T08:48:16.814Z,17.90
2018-04-07T08:53:11.340Z,16.80
2018-04-07T08:58:06.135Z,15.70
2018-04-07T09:03:00.894Z,14.80
2018-04-07T09:07:56.340Z,15.20
2018-04-07T09:12:51.254Z,15.10
2018-04-07T09:17:45.888Z,14.80
2018-04-07T09:22:40.512Z,15.00
2018-04-07T09:27:35.221Z,14.80
2018-04-07T09:32:29.996Z,14.70
2018-04-07T09:37:24.633Z,15.10
2018-04-07T09:42:19.092Z,15.90
2018-04-07T09:47:13.454Z,16.60
2018-04-07T09:52:08.616Z,19.30
2018-04-07T09:57:03.314Z,19.30
2018-04-07T10:01:59.383Z,23.70
2018-04-07T10:06:53.844Z,27.00
2018-04-07T10:11:49.002Z,30.80
2018-04-07T10:16:43.398Z,30.70
2018-04-07T10:21:38.779Z,32.60
2018-04-07T10:26:34.662Z,33.10
2018-04-07T10:31:29.112Z,33.10
2018-04-07T10:36:23.387Z,32.90
2018-04-07T10:41:17.786Z,33.60
2018-04-07T10:46:12.186Z,34.10
2018-04-07T10:51:06.824Z,34.00
2018-04-07T10:56:01.402Z,33.40
2018-04-07T11:00:55.850Z,34.50
2018-04-07T11:05:50.249Z,34.40
2018-04-07T11:10:45.411Z,34.70
2018-04-07T11:15:40.342Z,34.00
2018-04-07T11:20:34.683Z,33.30
2018-04-07T11:25:29.257Z,33.60
2018-04-07T11:30:23.640Z,33.60
2018-04-07T11:35:18.008Z,33.60
2018-04-07T11:40:12.392Z,33.30
2018-04-07T11:45:06.764Z,33.30
2018-04-07T11:50:01.272Z,33.40
2018-04-07T11:54:55.660Z,33.50
2018-04-07T11:59:50.071Z,33.70
2018-04-07T12:04:44.452Z,33.20
2018-04-07T12:09:38.850Z,33.10
2018-04-07T12:14:33.982Z,32.60
2018-04-07T12:19:28.524Z,32.60
2018-04-07T12:24:22.888Z,32.60
2018-04-07T12:29:17.240Z,32.60
2018-04-07T12:34:11.594Z,31.80
2018-04-07T12:39:05.284Z,31.70
2018-04-07T12:43:59.642Z,31.80
2018-04-07T12:48:54.008Z,32.00
2018-04-07T12:53:48.124Z,31.50
2018-04-07T12:58:42.488Z,31.40
2018-04-07T13:03:36.605Z,31.80
2018-04-07T13:08:30.976Z,33.10
2018-04-07T13:13:25.347Z,32.30
2018-04-07T13:18:20.490Z,31.50
2018-04-07T13:23:15.381Z,32.00
2018-04-07T13:28:09.624Z,31.80
2018-04-07T13:33:04.002Z,31.60
2018-04-07T13:37:59.134Z,30.80
2018-04-07T13:42:54.284Z,30.20
2018-04-07T13:47:48.415Z,30.20
2018-04-07T13:52:42.896Z,30.50
2018-04-07T13:57:37.264Z,30.60
2018-04-07T14:02:31.608Z,30.70
2018-04-07T14:07:25.962Z,30.60
2018-04-07T14:12:20.311Z,30.30
2018-04-07T14:17:14.699Z,30.30
2018-04-07T14:22:09.131Z,30.40
2018-04-07T14:27:03.506Z,30.40
2018-04-07T14:31:57.857Z,31.00
2018-04-07T14:36:52.218Z,30.10
2018-04-07T14:41:46.608Z,29.40
2018-04-07T14:46:41.007Z,29.50
2018-04-07T14:51:36.775Z,29.80
2018-04-07T14:56:46.121Z,29.70
2018-04-07T15:01:40.736Z,29.50
2018-04-07T15:06:43.884Z,29.40
2018-04-07T15:11:41.913Z,28.80
2018-04-07T15:16:36.279Z,28.70
2018-04-07T15:21:31.618Z,28.50
2018-04-07T15:26:25.986Z,28.50
2018-04-07T15:31:20.364Z,28.90
2018-04-07T15:36:14.747Z,28.90
2018-04-07T15:41:09.277Z,28.90
2018-04-07T15:46:03.646Z,29.10
2018-04-07T15:50:58.218Z,29.00
2018-04-07T15:56:07.762Z,29.30
2018-04-07T16:01:02.848Z,29.50
2018-04-07T16:05:58.192Z,29.40
2018-04-07T16:10:52.514Z,30.40
2018-04-07T16:15:47.850Z,30.30
2018-04-07T16:20:43.672Z,30.30
2018-04-07T16:25:39.027Z,30.50
2018-04-07T16:30:38.484Z,30.50
2018-04-07T16:35:32.871Z,30.60
2018-04-07T16:40:27.256Z,30.80
2018-04-07T16:45:21.680Z,30.80
2018-04-07T16:50:16.416Z,31.20
2018-04-07T16:55:10.764Z,31.50
2018-04-07T17:00:05.242Z,31.70
2018-04-07T17:04:59.611Z,32.30
2018-04-07T17:09:58.109Z,32.40
2018-04-07T17:14:54.018Z,32.50
2018-04-07T17:20:11.340Z,33.20
2018-04-07T17:25:20.635Z,33.80
2018-04-07T17:30:15.068Z,33.80
2018-04-07T17:35:09.562Z,34.10
2018-04-07T17:40:04.298Z,34.40
2018-04-07T17:45:11.672Z,34.70
2018-04-07T17:50:05.833Z,35.20
2018-04-07T17:55:00.213Z,35.30
2018-04-07T17:59:55.666Z,36.20
2018-04-07T18:05:06.001Z,36.10
2018-04-07T18:15:32.798Z,37.40
2018-04-07T18:20:27.173Z,37.30
2018-04-07T18:25:21.567Z,37.60
2018-04-07T18:30:16.077Z,37.50
2018-04-07T18:35:10.420Z,38.00
2018-04-07T18:40:05.106Z,38.60
2018-04-07T18:44:59.493Z,38.60
2018-04-07T18:49:53.897Z,38.90
2018-04-07T18:54:48.406Z,39.20
2018-04-07T18:59:42.765Z,39.70
2018-04-07T19:04:37.877Z,40.50
2018-04-07T19:09:32.967Z,40.90
2018-04-07T19:14:27.465Z,40.90
2018-04-07T19:19:21.848Z,41.40
2018-04-07T19:24:16.199Z,41.80
2018-04-07T19:29:10.742Z,42.30
2018-04-07T19:34:05.485Z,42.90
2018-04-07T19:49:46.835Z,45.00
2018-04-07T19:54:42.272Z,45.00
2018-04-07T19:59:36.808Z,45.20
2018-04-07T20:04:31.577Z,46.10
2018-04-07T20:09:29.381Z,45.60
2018-04-07T20:14:23.868Z,46.00
2018-04-07T20:19:18.210Z,46.40
2018-04-07T20:24:13.149Z,46.90
2018-04-07T20:29:08.309Z,47.40
2018-04-07T20:34:03.849Z,48.10
2018-04-07T20:38:58.824Z,49.40
2018-04-07T20:43:53.309Z,49.70
2018-04-07T20:48:48.600Z,49.70
2018-04-07T20:53:46.238Z,49.60
2018-04-07T20:58:40.664Z,49.60
2018-04-07T21:03:35.070Z,49.40
2018-04-07T21:08:29.197Z,49.40
2018-04-07T21:13:23.565Z,49.30
2018-04-07T21:18:17.943Z,49.20
2018-04-07T21:23:12.293Z,49.50
2018-04-07T21:28:07.389Z,49.70
2018-04-07T21:33:01.980Z,50.20
2018-04-07T21:37:56.864Z,50.30
2018-04-07T21:42:51.992Z,50.40
2018-04-07T21:47:47.098Z,50.40
2018-04-07T21:52:42.102Z,50.00
2018-04-07T21:57:37.272Z,50.60
2018-04-07T22:02:31.803Z,50.60
2018-04-07T22:07:27.155Z,51.20
2018-04-07T22:12:21.390Z,51.20
2018-04-07T22:17:16.851Z,51.80
2018-04-07T22:22:11.895Z,51.80
2018-04-07T22:27:06.272Z,52.10
2018-04-07T22:32:00.426Z,52.30
2018-04-07T22:36:55.690Z,52.60
2018-04-07T22:41:49.823Z,52.50
2018-04-07T22:46:44.200Z,52.50
2018-04-07T22:51:38.624Z,52.50
2018-04-07T22:56:33.328Z,52.80
2018-04-07T23:01:27.693Z,52.90
2018-04-07T23:06:22.426Z,53.00
2018-04-07T23:11:16.821Z,53.00
2018-04-07T23:16:11.191Z,52.90
2018-04-07T23:21:06.340Z,53.40
2018-04-07T23:26:01.773Z,53.40
2018-04-07T23:30:56.170Z,53.10
2018-04-07T23:35:50.562Z,52.80
2018-04-07T23:40:44.936Z,53.00
2018-04-07T23:45:40.070Z,53.50
2018-04-07T23:50:35.224Z,53.90
2018-04-07T23:55:29.592Z,53.80
